Terminal Aerodrome Forecast
Issued by NWS Cleveland, OH

Home | Current Version | Previous Version | Graphics & Text | Print | Product List | Glossary Off
Versions: 1 2 3 4 5 6 7 8 9 10 11 12 13 14 15 16

000
FTUS41 KCLE 211100
TAFERI
TAF
KERI 211136Z 2112/2212 VRB04KT P6SM OVC090
     FM211400 29008KT P6SM OVC080
     FM212200 23006KT P6SM SCT200
     FM220900 29006KT P6SM BKN060=

USA.gov is the U.S. government's official web portal to all federal, state and local government web resources and services.